Quail Heights, Florida
Current Conditions -  °F | °C
As of 10:53 PM on Sunday 23 Nov 2014 (Local Time) from KTMB Reporting Station
Clear Clear  
Wind Chill: 78°   Ceiling: Unl
Heat Index: 81°   Visibility: 10mi
Dew Point: 74°   Wind: 9mph
Humidity: 87%   Direction: 140°SE
Pressure: 29.96"   Gusts: NA
Location:  25.6122°N, 80.3488°W
Report Text: KTMB 240353Z 14008KT 10SM CLR 26/23 A2996 RMK AO2 SLP146 T02560233
Loading
Personal Weather Stations






























Interactive Weather Map New forecast layout! Learn more

10-Day Weather Forecast

Advertisements
Track Severe Weather on mobile